• Join FlightAware (Why Join?)
  • Login
  • US Flag 
11:16AM EDT


 

Airport Tracker/Info


-or-


 

Live Flight TrackerFlight Track Log ✈ UAL386 ✈ 17-Jul-2013 ✈ KSEA - KDEN

Flight Track Log - Related Links

Times and Time Zones

All times are in EDT time to prevent confusion due to time zone crossing. See the UAL386 flight status page for this flight to view local times or setup timezone preferences in your user account.

Time Position Orientation Groundspeed Altitude Reporting Facility
EDT Latitude Longitude Course Direction KTS MPH feet Rate Location/Type
08:18AM 47.4258 -122.3089 90° East 158 182 1,300  Level Seattle Center
08:19AM 47.3978 -122.3114 183° South 160 184 2,200 1,860 Climbing Seattle Center
08:19AM 47.3672 -122.3108 179° South 191 220 3,600 2,460 Climbing Seattle Center
08:20AM 47.2989 -122.3106 180° South 246 283 6,200 3,000 Climbing Seattle Center
08:21AM 47.3101 -121.8599 163° South  Level Estimated
08:21AM 47.2219 -122.3206 185° South 279 321 9,600  Level Seattle Center
08:22AM 47.2631 -121.7099 163° South  Level Estimated
08:22AM 47.1447 -122.3650 201° Southwest 277 319 13,600  Level Seattle Center
08:23AM 47.2159 -121.5601 90° East  Level Estimated
08:23AM 47.0678 -122.4083 201° Southwest 295 339 16,900  Level Seattle Center
08:24AM 46.9947 -122.4531 203° Southwest 292 336 19,200 2,220 Climbing Seattle Center
08:25AM 46.9097 -122.5069 203° Southwest 332 382 21,400 1,980 Climbing Seattle Center
08:26AM 46.8253 -122.5600 203° Southwest 335 386 23,200 1,800 Climbing Seattle Center
08:27AM 46.7539 -122.4725 140° Southeast 346 398 25,100 1,560 Climbing Seattle Center
08:28AM 46.7042 -122.3519 121° Southeast 348 400 26,400 1,020 Climbing Seattle Center
08:29AM 46.6556 -122.2183 118° Southeast 372 428 27,200 900 Climbing Seattle Center
08:30AM 46.6008 -122.0750 119° Southeast 402 463 28,300 1,140 Climbing Seattle Center
08:31AM 46.5436 -121.9275 119° Southeast 420 483 29,600 1,200 Climbing Seattle Center
08:32AM 46.4867 -121.7769 119° Southeast 428 493 30,700 1,020 Climbing Seattle Center
08:33AM 46.4272 -121.6231 119° Southeast 441 507 31,700 1,140 Climbing Seattle Center
08:34AM 46.3628 -121.4558 119° Southeast 446 513 33,100 1,260 Climbing Seattle Center
08:35AM 46.3017 -121.2969 119° Southeast 450 518 34,300 1,140 Climbing Seattle Center
08:36AM 46.2389 -121.1414 120° Southeast 451 519 35,400 960 Climbing Seattle Center
08:37AM 46.1772 -120.9831 119° Southeast 451 519 36,300 780 Climbing Seattle Center
08:38AM 46.1136 -120.8253 120° Southeast 453 521 37,000 300 Climbing Seattle Center
08:39AM 46.0514 -120.6675 120° Southeast 455 524 37,000  Level Seattle Center
08:40AM 45.9939 -120.5017 116° Southeast 464 534 37,000  Level Seattle Center
08:41AM 45.9422 -120.3331 114° Southeast 461 531 37,000  Level Seattle Center
08:42AM 45.8889 -120.1647 114° Southeast 463 533 37,000  Level Seattle Center
08:43AM 45.8369 -119.9975 114° Southeast 460 529 37,000  Level Seattle Center
08:44AM 45.7839 -119.8294 114° Southeast 461 531 37,000  Level Seattle Center
08:45AM 45.7306 -119.6614 114° Southeast 463 533 37,000  Level Seattle Center
08:46AM 45.6778 -119.4964 115° Southeast 458 527 37,100  Climbing Seattle Center
08:47AM 45.6261 -119.3344 114° Southeast 452 520 37,000 -60 Descending Seattle Center
08:48AM 45.5742 -119.1744 115° Southeast 446 513 37,000 -60 Level Seattle Center
08:49AM 45.5239 -119.0183 115° Southeast 438 504 36,900 -60 Descending Seattle Center
08:50AM 45.4722 -118.8600 115° Southeast 438 504 36,900  Level Seattle Center
08:51AM 45.4189 -118.7028 116° Southeast 440 506 37,000  Climbing Seattle Center
08:52AM 45.3661 -118.5417 115° Southeast 448 516 37,000  Level Seattle Center
08:53AM 45.3122 -118.3806 115° Southeast 451 519 37,000  Level Seattle Center
08:54AM 45.2581 -118.2200 116° Southeast 451 519 37,000  Level Seattle Center
08:55AM 45.2047 -118.0597 115° Southeast 451 519 37,000  Level Seattle Center
08:56AM 45.1419 -117.8767 116° Southeast 454 522 37,000  Level Seattle Center
08:57AM 45.0894 -117.7236 116° Southeast 452 520 37,000  Level Seattle Center
08:58AM 45.0369 -117.5728 116° Southeast 449 517 37,000  Level Seattle Center
08:59AM 44.9761 -117.3972 116° Southeast 446 513 37,000  Level Seattle Center
09:00AM 44.9250 -117.2483 116° Southeast 442 509 37,000  Level Seattle Center
09:01AM 44.8728 -117.0997 116° Southeast 441 507 37,000  Level Seattle Center
09:02AM 44.8208 -116.9522 116° Southeast 439 505 37,000  Level Seattle Center
09:03AM 44.7592 -116.7775 116° Southeast 445 512 37,000  Level Seattle Center
09:04AM 44.7058 -116.6275 117° Southeast 447 514 37,000  Level Seattle Center
09:05AM 44.6522 -116.4775 117° Southeast 448 516 37,000  Level Seattle Center
09:07AM 44.5811 -116.2764 116° Southeast 450 518 37,000  Level Salt Lake Center
09:08AM 44.5267 -116.1214 116° Southeast 453 521 37,000  Level Salt Lake Center
09:09AM 44.4697 -115.9625 117° Southeast 458 527 37,000 -60 Level Salt Lake Center
09:10AM 44.4139 -115.8147 118° Southeast 451 519 36,900  Descending Salt Lake Center
09:11AM 44.3492 -115.6408 117° Southeast 450 518 37,000  Climbing Salt Lake Center
09:12AM 44.2933 -115.4903 117° Southeast 453 521 37,000  Level Salt Lake Center
09:13AM 44.2381 -115.3414 117° Southeast 453 521 37,000  Level Salt Lake Center
09:14AM 44.1717 -115.1675 118° Southeast 454 522 37,000  Level Salt Lake Center
09:15AM 44.1156 -115.0183 118° Southeast 454 522 37,000  Level Salt Lake Center
09:16AM 44.0592 -114.8697 118° Southeast 454 522 37,000  Level Salt Lake Center
09:17AM 43.9939 -114.6967 118° Southeast 452 520 37,000  Level Salt Lake Center
09:18AM 43.9369 -114.5497 118° Southeast 452 520 37,000  Level Salt Lake Center
09:19AM 43.8700 -114.3772 118° Southeast 454 522 37,000  Level Salt Lake Center
09:20AM 43.8133 -114.2289 118° Southeast 455 524 37,000  Level Salt Lake Center
09:21AM 43.7556 -114.0803 118° Southeast 457 526 37,000  Level Salt Lake Center
09:22AM 43.6872 -113.9081 119° Southeast 457 526 37,000  Level Salt Lake Center
09:23AM 43.6258 -113.7508 118° Southeast 457 526 37,000  Level Salt Lake Center
09:24AM 43.5669 -113.6031 119° Southeast 457 526 37,000  Level Salt Lake Center
09:25AM 43.5036 -113.4439 119° Southeast 453 521 37,000 -60 Level Salt Lake Center
09:26AM 43.4506 -113.3122 119° Southeast 452 520 36,900  Descending Salt Lake Center
09:27AM 43.3761 -113.1297 119° Southeast 455 524 37,000  Climbing Salt Lake Center
09:28AM 43.3142 -112.9764 119° Southeast 457 526 37,000  Level Salt Lake Center
09:29AM 43.2511 -112.8272 120° Southeast 456 525 37,000  Level Salt Lake Center
09:30AM 43.1906 -112.6742 118° Southeast 456 525 37,000  Level Salt Lake Center
09:31AM 43.1269 -112.5244 120° Southeast 455 524 37,000  Level Salt Lake Center
09:32AM 43.0647 -112.3728 119° Southeast 458 527 37,000  Level Salt Lake Center
09:33AM 43.0017 -112.2222 120° Southeast 457 526 37,000  Level Salt Lake Center
09:34AM 42.9389 -112.0694 119° Southeast 462 532 37,000  Level Salt Lake Center
09:35AM 42.8744 -111.9186 120° Southeast 461 531 37,000  Level Salt Lake Center
09:36AM 42.8106 -111.7664 120° Southeast 462 532 37,000 -60 Level Salt Lake Center
09:37AM 42.7358 -111.5875 120° Southeast 465 535 36,900  Descending Salt Lake Center
09:38AM 42.6692 -111.4347 121° Southeast 460 529 37,000  Climbing Salt Lake Center
09:39AM 42.6039 -111.2850 121° Southeast 460 529 37,000  Level Salt Lake Center
09:40AM 42.5389 -111.1339 120° Southeast 463 533 37,000  Level Salt Lake Center
09:41AM 42.4736 -110.9831 120° Southeast 463 533 37,000  Level Salt Lake Center
09:42AM 42.4036 -110.8217 120° Southeast 464 534 37,000  Level Salt Lake Center
09:43AM 42.3403 -110.6783 121° Southeast 464 534 37,000  Level Salt Lake Center
09:44AM 42.2667 -110.5100 121° Southeast 465 535 37,000  Level Salt Lake Center
09:45AM 42.2039 -110.3683 121° Southeast 463 533 37,000  Level Salt Lake Center
09:46AM 42.1400 -110.2258 121° Southeast 462 532 37,000  Level Salt Lake Center
09:47AM 42.0658 -110.0594 121° Southeast 466 536 37,000  Level Salt Lake Center
09:48AM 42.0019 -109.9178 121° Southeast 463 533 37,000  Level Salt Lake Center
09:50AM 41.9264 -109.7500 121° Southeast 469 540 37,000  Level Salt Lake Center
09:51AM 41.8619 -109.6075 121° Southeast 468 539 37,000  Level Salt Lake Center
09:52AM 41.7867 -109.4417 121° Southeast 466 536 37,000  Level Salt Lake Center
09:53AM 41.7225 -109.3003 121° Southeast 464 534 37,000 -60 Level Salt Lake Center
09:54AM 41.6589 -109.1592 121° Southeast 461 531 36,900  Descending Salt Lake Center
09:55AM 41.5844 -108.9906 121° Southeast 463 533 37,000  Climbing Salt Lake Center
09:56AM 41.5372 -108.8361 112° Southeast 463 533 37,000  Level Salt Lake Center
09:57AM 41.4903 -108.6836 112° Southeast 463 533 37,000  Level Salt Lake Center
09:58AM 41.4303 -108.5053 114° Southeast 469 540 37,000  Level Salt Lake Center
09:59AM 41.3775 -108.3472 114° Southeast 481 554 37,000  Level Salt Lake Center
10:00AM 41.3158 -108.1644 114° Southeast 484 557 37,000  Level Salt Lake Center
10:01AM 41.2622 -108.0108 115° Southeast 481 554 37,000  Level Salt Lake Center
10:02AM 41.2019 -107.8300 114° Southeast 480 552 37,000  Level Salt Lake Center
10:03AM 41.1486 -107.6742 114° Southeast 484 557 37,000  Level Salt Lake Center
10:04AM 41.0978 -107.5211 114° Southeast 478 550 37,000  Level Salt Lake Center
10:05AM 41.0364 -107.3439 115° Southeast 475 547 37,000  Level Salt Lake Center
10:06AM 40.9836 -107.1925 115° Southeast 472 543 37,000  Level Salt Lake Center
10:07AM 40.9267 -107.0233 114° Southeast 456 525 37,000 -360 Level Salt Lake Center
10:09AM 40.8497 -106.8028 115° Southeast 461 531 36,200 -840 Descending Denver Center
10:10AM 40.7956 -106.6544 116° Southeast 467 537 35,000 -1,980 Descending Denver Center
10:11AM 40.7339 -106.4769 115° Southeast 467 537 32,200 -2,400 Descending Denver Center
10:12AM 40.6825 -106.3333 115° Southeast 453 521 30,100 -2,220 Descending Denver Center
10:13AM 40.6250 -106.1719 115° Southeast 437 503 27,700 -2,160 Descending Denver Center
10:14AM 40.5758 -106.0361 115° Southeast 421 484 25,700 -1,980 Descending Denver Center
10:15AM 40.5269 -105.9019 116° Southeast 409 471 23,700 -1,920 Descending Denver Center
10:16AM 40.4792 -105.7733 116° Southeast 397 457 21,800 -1,860 Descending Denver Center
10:17AM 40.4336 -105.6486 116° Southeast 383 441 19,900 -1,800 Descending Denver Center
10:18AM 40.3900 -105.5272 115° Southeast 372 428 18,200 -1,140 Descending Denver Center
10:19AM 40.3511 -105.3889 110° East 337 388 17,400 -1,080 Descending Denver Center
10:20AM 40.3519 -105.2411 90° East 331 381 15,800 -1,500 Descending Denver Center
10:21AM 40.3522 -105.1250 90° East 320 368 14,300 -1,080 Descending Denver Center
10:22AM 40.3519 -105.0067 90° East 305 351 13,600 -720 Descending Denver Center
10:23AM 40.3381 -104.9114 101° East 270 311 12,900 -960 Descending Denver Center
10:24AM 40.3022 -104.8292 120° Southeast 267 307 11,700 -1,080 Descending Denver Center
10:25AM 40.2325 -104.7853 154° Southeast 259 298 10,700 -840 Descending Denver Center
10:26AM 40.1747 -104.7481 154° Southeast 233 268 10,000 -840 Descending Denver Center
10:27AM 40.1178 -104.7114 154° Southeast 211 243 9,000 -720 Descending Denver Center
10:28AM 40.0633 -104.6939 166° South 212 244 8,600 -420 Descending Denver Center